sensor_id;sensor_type;location;lat;lon;timestamp;P1;durP1;ratioP1;P2;durP2;ratioP2
4422;SDS011;2224;49.814;8.650;2023-01-26T00:00:46;31.20;;;20.13;;
4422;SDS011;2224;49.814;8.650;2023-01-26T00:03:12;32.40;;;20.73;;
4422;SDS011;2224;49.814;8.650;2023-01-26T00:05:37;32.63;;;20.60;;
4422;SDS011;2224;49.814;8.650;2023-01-26T00:08:02;34.47;;;21.23;;
4422;SDS011;2224;49.814;8.650;2023-01-26T00:10:28;33.87;;;20.73;;
4422;SDS011;2224;49.814;8.650;2023-01-26T00:12:53;32.17;;;18.97;;
4422;SDS011;2224;49.814;8.650;2023-01-26T00:15:19;31.40;;;21.27;;
4422;SDS011;2224;49.814;8.650;2023-01-26T00:17:44;28.53;;;19.90;;
4422;SDS011;2224;49.814;8.650;2023-01-26T00:20:09;33.60;;;20.70;;
4422;SDS011;2224;49.814;8.650;2023-01-26T00:22:35;29.97;;;18.13;;
4422;SDS011;2224;49.814;8.650;2023-01-26T00:25:00;31.83;;;20.83;;
4422;SDS011;2224;49.814;8.650;2023-01-26T00:27:25;34.47;;;19.80;;
4422;SDS011;2224;49.814;8.650;2023-01-26T00:29:51;31.90;;;20.60;;
4422;SDS011;2224;49.814;8.650;2023-01-26T00:32:16;28.47;;;18.53;;
4422;SDS011;2224;49.814;8.650;2023-01-26T00:34:42;30.77;;;19.73;;
4422;SDS011;2224;49.814;8.650;2023-01-26T00:37:07;32.03;;;19.80;;
4422;SDS011;2224;49.814;8.650;2023-01-26T00:39:32;28.73;;;18.47;;
4422;SDS011;2224;49.814;8.650;2023-01-26T00:41:58;36.67;;;20.07;;
4422;SDS011;2224;49.814;8.650;2023-01-26T00:44:39;28.92;;;19.40;;
4422;SDS011;2224;49.814;8.650;2023-01-26T00:47:06;29.15;;;18.25;;
4422;SDS011;2224;49.814;8.650;2023-01-26T00:49:33;33.08;;;18.77;;
4422;SDS011;2224;49.814;8.650;2023-01-26T00:51:59;35.37;;;20.87;;
4422;SDS011;2224;49.814;8.650;2023-01-26T00:54:24;33.83;;;19.97;;
4422;SDS011;2224;49.814;8.650;2023-01-26T00:56:49;30.03;;;18.77;;
4422;SDS011;2224;49.814;8.650;2023-01-26T00:59:15;30.33;;;19.30;;
4422;SDS011;2224;49.814;8.650;2023-01-26T01:01:40;31.80;;;19.70;;
4422;SDS011;2224;49.814;8.650;2023-01-26T01:04:05;38.80;;;21.33;;
4422;SDS011;2224;49.814;8.650;2023-01-26T01:06:31;31.90;;;19.17;;
4422;SDS011;2224;49.814;8.650;2023-01-26T01:08:56;35.07;;;21.00;;
4422;SDS011;2224;49.814;8.650;2023-01-26T01:11:21;35.63;;;21.33;;
4422;SDS011;2224;49.814;8.650;2023-01-26T01:13:47;31.03;;;21.30;;
4422;SDS011;2224;49.814;8.650;2023-01-26T01:16:13;34.87;;;21.43;;
4422;SDS011;2224;49.814;8.650;2023-01-26T01:18:39;33.08;;;20.50;;
4422;SDS011;2224;49.814;8.650;2023-01-26T01:21:08;28.20;;;17.67;;
4422;SDS011;2224;49.814;8.650;2023-01-26T01:23:34;32.08;;;19.80;;
4422;SDS011;2224;49.814;8.650;2023-01-26T01:26:00;28.60;;;18.23;;
4422;SDS011;2224;49.814;8.650;2023-01-26T01:28:26;33.43;;;19.90;;
4422;SDS011;2224;49.814;8.650;2023-01-26T01:30:51;30.10;;;19.87;;
4422;SDS011;2224;49.814;8.650;2023-01-26T01:33:16;36.83;;;21.17;;
4422;SDS011;2224;49.814;8.650;2023-01-26T01:35:42;29.23;;;17.57;;
4422;SDS011;2224;49.814;8.650;2023-01-26T01:38:07;30.63;;;18.23;;
4422;SDS011;2224;49.814;8.650;2023-01-26T01:40:32;29.03;;;18.30;;
4422;SDS011;2224;49.814;8.650;2023-01-26T01:42:58;29.53;;;19.40;;
4422;SDS011;2224;49.814;8.650;2023-01-26T01:48:03;27.63;;;19.08;;
4422;SDS011;2224;49.814;8.650;2023-01-26T01:50:32;28.50;;;17.95;;
4422;SDS011;2224;49.814;8.650;2023-01-26T01:53:01;32.90;;;19.67;;
4422;SDS011;2224;49.814;8.650;2023-01-26T01:55:27;31.10;;;18.50;;
4422;SDS011;2224;49.814;8.650;2023-01-26T01:57:54;29.13;;;17.10;;
4422;SDS011;2224;49.814;8.650;2023-01-26T02:00:24;28.40;;;17.15;;
4422;SDS011;2224;49.814;8.650;2023-01-26T02:03:11;28.05;;;15.07;;
4422;SDS011;2224;49.814;8.650;2023-01-26T02:08:26;26.67;;;17.13;;
4422;SDS011;2224;49.814;8.650;2023-01-26T02:10:55;26.15;;;17.17;;
4422;SDS011;2224;49.814;8.650;2023-01-26T02:13:22;24.30;;;16.65;;
4422;SDS011;2224;49.814;8.650;2023-01-26T02:15:48;21.85;;;14.70;;
4422;SDS011;2224;49.814;8.650;2023-01-26T02:18:15;29.70;;;16.38;;
4422;SDS011;2224;49.814;8.650;2023-01-26T02:26:14;21.30;;;12.30;;
4422;SDS011;2224;49.814;8.650;2023-01-26T02:28:59;20.30;;;13.68;;
4422;SDS011;2224;49.814;8.650;2023-01-26T02:31:25;17.10;;;12.65;;
4422;SDS011;2224;49.814;8.650;2023-01-26T02:33:51;21.33;;;12.07;;
4422;SDS011;2224;49.814;8.650;2023-01-26T02:36:18;19.77;;;12.80;;
4422;SDS011;2224;49.814;8.650;2023-01-26T02:38:50;18.23;;;13.23;;
4422;SDS011;2224;49.814;8.650;2023-01-26T02:41:19;19.80;;;12.93;;
4422;SDS011;2224;49.814;8.650;2023-01-26T02:44:04;22.38;;;14.07;;
4422;SDS011;2224;49.814;8.650;2023-01-26T02:46:32;20.75;;;13.23;;
4422;SDS011;2224;49.814;8.650;2023-01-26T02:48:57;19.43;;;13.63;;
4422;SDS011;2224;49.814;8.650;2023-01-26T02:51:41;21.00;;;13.73;;
4422;SDS011;2224;49.814;8.650;2023-01-26T02:54:06;21.07;;;13.50;;
4422;SDS011;2224;49.814;8.650;2023-01-26T02:56:32;20.57;;;13.70;;
4422;SDS011;2224;49.814;8.650;2023-01-26T02:58:57;23.07;;;13.20;;
4422;SDS011;2224;49.814;8.650;2023-01-26T03:01:23;20.47;;;13.13;;
4422;SDS011;2224;49.814;8.650;2023-01-26T03:03:48;21.37;;;14.17;;
4422;SDS011;2224;49.814;8.650;2023-01-26T03:06:13;20.27;;;12.93;;
4422;SDS011;2224;49.814;8.650;2023-01-26T03:08:39;21.07;;;14.40;;
4422;SDS011;2224;49.814;8.650;2023-01-26T03:11:05;27.50;;;16.30;;
4422;SDS011;2224;49.814;8.650;2023-01-26T03:13:31;27.00;;;15.45;;
4422;SDS011;2224;49.814;8.650;2023-01-26T03:15:56;25.80;;;16.00;;
4422;SDS011;2224;49.814;8.650;2023-01-26T03:18:26;24.55;;;15.82;;
4422;SDS011;2224;49.814;8.650;2023-01-26T03:21:12;23.38;;;14.38;;
4422;SDS011;2224;49.814;8.650;2023-01-26T03:23:59;21.30;;;14.75;;
4422;SDS011;2224;49.814;8.650;2023-01-26T03:26:43;21.48;;;13.88;;
4422;SDS011;2224;49.814;8.650;2023-01-26T03:29:28;24.17;;;12.90;;
4422;SDS011;2224;49.814;8.650;2023-01-26T03:31:53;20.40;;;13.50;;
4422;SDS011;2224;49.814;8.650;2023-01-26T03:34:19;27.67;;;15.13;;
4422;SDS011;2224;49.814;8.650;2023-01-26T03:36:45;22.83;;;12.83;;
4422;SDS011;2224;49.814;8.650;2023-01-26T03:39:11;17.20;;;12.00;;
4422;SDS011;2224;49.814;8.650;2023-01-26T03:41:56;18.77;;;11.52;;
4422;SDS011;2224;49.814;8.650;2023-01-26T03:44:41;20.95;;;12.13;;
4422;SDS011;2224;49.814;8.650;2023-01-26T03:47:25;21.95;;;12.85;;
4422;SDS011;2224;49.814;8.650;2023-01-26T03:50:09;20.90;;;12.90;;
4422;SDS011;2224;49.814;8.650;2023-01-26T03:52:53;27.92;;;14.75;;
4422;SDS011;2224;49.814;8.650;2023-01-26T03:55:37;24.67;;;15.55;;
4422;SDS011;2224;49.814;8.650;2023-01-26T03:58:22;27.13;;;15.95;;
4422;SDS011;2224;49.814;8.650;2023-01-26T04:00:50;23.20;;;13.70;;
4422;SDS011;2224;49.814;8.650;2023-01-26T04:03:15;27.38;;;16.00;;
4422;SDS011;2224;49.814;8.650;2023-01-26T04:05:59;25.30;;;15.40;;
4422;SDS011;2224;49.814;8.650;2023-01-26T04:08:43;27.80;;;16.08;;
4422;SDS011;2224;49.814;8.650;2023-01-26T04:11:11;28.75;;;14.38;;
4422;SDS011;2224;49.814;8.650;2023-01-26T04:13:37;27.10;;;15.52;;
4422;SDS011;2224;49.814;8.650;2023-01-26T04:16:20;27.00;;;14.23;;
4422;SDS011;2224;49.814;8.650;2023-01-26T04:19:04;22.92;;;14.90;;
4422;SDS011;2224;49.814;8.650;2023-01-26T04:21:48;26.77;;;14.80;;
4422;SDS011;2224;49.814;8.650;2023-01-26T04:24:13;23.83;;;14.93;;
4422;SDS011;2224;49.814;8.650;2023-01-26T04:26:39;23.87;;;15.20;;
4422;SDS011;2224;49.814;8.650;2023-01-26T04:29:06;25.42;;;15.20;;
4422;SDS011;2224;49.814;8.650;2023-01-26T04:31:36;22.67;;;14.38;;
4422;SDS011;2224;49.814;8.650;2023-01-26T04:34:02;21.30;;;12.93;;
4422;SDS011;2224;49.814;8.650;2023-01-26T04:36:29;20.92;;;13.95;;
4422;SDS011;2224;49.814;8.650;2023-01-26T04:38:54;22.10;;;13.70;;
4422;SDS011;2224;49.814;8.650;2023-01-26T04:41:20;23.20;;;14.37;;
4422;SDS011;2224;49.814;8.650;2023-01-26T04:43:45;20.80;;;14.33;;
4422;SDS011;2224;49.814;8.650;2023-01-26T04:46:10;24.50;;;13.40;;
4422;SDS011;2224;49.814;8.650;2023-01-26T04:48:36;20.93;;;13.30;;
4422;SDS011;2224;49.814;8.650;2023-01-26T04:51:03;20.70;;;13.90;;
4422;SDS011;2224;49.814;8.650;2023-01-26T04:53:33;25.75;;;15.00;;
4422;SDS011;2224;49.814;8.650;2023-01-26T04:55:58;25.65;;;14.20;;
4422;SDS011;2224;49.814;8.650;2023-01-26T04:58:24;21.40;;;13.70;;
4422;SDS011;2224;49.814;8.650;2023-01-26T05:00:50;23.07;;;13.80;;
4422;SDS011;2224;49.814;8.650;2023-01-26T05:03:17;21.92;;;13.43;;
4422;SDS011;2224;49.814;8.650;2023-01-26T05:05:42;20.70;;;11.90;;
4422;SDS011;2224;49.814;8.650;2023-01-26T05:08:07;19.40;;;12.87;;
4422;SDS011;2224;49.814;8.650;2023-01-26T05:10:33;21.40;;;12.47;;
4422;SDS011;2224;49.814;8.650;2023-01-26T05:12:58;18.00;;;12.43;;
4422;SDS011;2224;49.814;8.650;2023-01-26T05:15:24;22.17;;;14.43;;
4422;SDS011;2224;49.814;8.650;2023-01-26T05:17:49;23.33;;;15.30;;
4422;SDS011;2224;49.814;8.650;2023-01-26T05:20:15;22.17;;;14.07;;
4422;SDS011;2224;49.814;8.650;2023-01-26T05:22:40;21.57;;;13.70;;
4422;SDS011;2224;49.814;8.650;2023-01-26T05:25:06;24.50;;;14.50;;
4422;SDS011;2224;49.814;8.650;2023-01-26T05:27:32;23.70;;;15.20;;
4422;SDS011;2224;49.814;8.650;2023-01-26T05:29:57;23.47;;;13.90;;
4422;SDS011;2224;49.814;8.650;2023-01-26T05:32:26;22.13;;;14.15;;
4422;SDS011;2224;49.814;8.650;2023-01-26T05:34:52;19.40;;;13.13;;
4422;SDS011;2224;49.814;8.650;2023-01-26T05:37:17;17.73;;;12.23;;
4422;SDS011;2224;49.814;8.650;2023-01-26T05:39:43;23.73;;;12.33;;
4422;SDS011;2224;49.814;8.650;2023-01-26T05:42:12;21.10;;;12.80;;
4422;SDS011;2224;49.814;8.650;2023-01-26T05:44:38;19.73;;;13.48;;
4422;SDS011;2224;49.814;8.650;2023-01-26T05:47:03;16.97;;;11.87;;
4422;SDS011;2224;49.814;8.650;2023-01-26T05:49:29;18.30;;;11.60;;
4422;SDS011;2224;49.814;8.650;2023-01-26T05:51:55;17.77;;;12.33;;
4422;SDS011;2224;49.814;8.650;2023-01-26T05:54:21;18.57;;;13.63;;
4422;SDS011;2224;49.814;8.650;2023-01-26T05:56:46;18.10;;;12.27;;
4422;SDS011;2224;49.814;8.650;2023-01-26T05:59:11;20.80;;;12.40;;
4422;SDS011;2224;49.814;8.650;2023-01-26T06:01:37;19.17;;;11.80;;
4422;SDS011;2224;49.814;8.650;2023-01-26T06:04:03;17.65;;;12.93;;
4422;SDS011;2224;49.814;8.650;2023-01-26T06:06:28;21.00;;;13.97;;
4422;SDS011;2224;49.814;8.650;2023-01-26T06:08:54;20.57;;;14.30;;
4422;SDS011;2224;49.814;8.650;2023-01-26T06:11:19;19.87;;;12.53;;
4422;SDS011;2224;49.814;8.650;2023-01-26T06:13:45;20.97;;;13.40;;
4422;SDS011;2224;49.814;8.650;2023-01-26T06:16:10;22.53;;;13.57;;
4422;SDS011;2224;49.814;8.650;2023-01-26T06:18:36;20.57;;;13.00;;
4422;SDS011;2224;49.814;8.650;2023-01-26T06:21:01;21.10;;;13.43;;
4422;SDS011;2224;49.814;8.650;2023-01-26T06:23:26;18.90;;;12.10;;
4422;SDS011;2224;49.814;8.650;2023-01-26T06:25:52;20.10;;;12.53;;
4422;SDS011;2224;49.814;8.650;2023-01-26T06:28:17;16.43;;;11.77;;
4422;SDS011;2224;49.814;8.650;2023-01-26T06:30:45;16.85;;;11.93;;
4422;SDS011;2224;49.814;8.650;2023-01-26T06:33:11;17.50;;;12.87;;
4422;SDS011;2224;49.814;8.650;2023-01-26T06:35:36;22.03;;;12.73;;
4422;SDS011;2224;49.814;8.650;2023-01-26T06:38:02;16.90;;;12.50;;
4422;SDS011;2224;49.814;8.650;2023-01-26T06:40:27;17.80;;;11.53;;
4422;SDS011;2224;49.814;8.650;2023-01-26T06:42:53;18.00;;;12.10;;
4422;SDS011;2224;49.814;8.650;2023-01-26T06:45:18;22.27;;;13.60;;
4422;SDS011;2224;49.814;8.650;2023-01-26T06:47:48;20.38;;;12.77;;
4422;SDS011;2224;49.814;8.650;2023-01-26T06:50:15;18.30;;;13.07;;
4422;SDS011;2224;49.814;8.650;2023-01-26T06:52:42;19.58;;;13.07;;
4422;SDS011;2224;49.814;8.650;2023-01-26T06:55:19;17.55;;;12.45;;
4422;SDS011;2224;49.814;8.650;2023-01-26T06:57:48;19.17;;;12.90;;
4422;SDS011;2224;49.814;8.650;2023-01-26T07:00:13;18.97;;;12.97;;
4422;SDS011;2224;49.814;8.650;2023-01-26T07:02:39;20.27;;;12.87;;
4422;SDS011;2224;49.814;8.650;2023-01-26T07:05:05;20.60;;;12.97;;
4422;SDS011;2224;49.814;8.650;2023-01-26T07:07:30;21.30;;;13.13;;
4422;SDS011;2224;49.814;8.650;2023-01-26T07:09:56;18.60;;;13.10;;
4422;SDS011;2224;49.814;8.650;2023-01-26T07:12:21;19.57;;;13.00;;
4422;SDS011;2224;49.814;8.650;2023-01-26T07:14:47;18.73;;;12.67;;
4422;SDS011;2224;49.814;8.650;2023-01-26T07:17:15;23.52;;;14.45;;
4422;SDS011;2224;49.814;8.650;2023-01-26T07:19:40;18.93;;;13.33;;
4422;SDS011;2224;49.814;8.650;2023-01-26T07:22:05;20.30;;;14.80;;
4422;SDS011;2224;49.814;8.650;2023-01-26T07:24:31;21.50;;;14.40;;
4422;SDS011;2224;49.814;8.650;2023-01-26T07:26:56;21.43;;;12.97;;
4422;SDS011;2224;49.814;8.650;2023-01-26T07:29:22;16.60;;;12.13;;
4422;SDS011;2224;49.814;8.650;2023-01-26T07:31:48;18.00;;;12.57;;
4422;SDS011;2224;49.814;8.650;2023-01-26T07:34:13;19.40;;;13.53;;
4422;SDS011;2224;49.814;8.650;2023-01-26T07:36:39;17.37;;;11.73;;
4422;SDS011;2224;49.814;8.650;2023-01-26T07:39:04;21.40;;;14.50;;
4422;SDS011;2224;49.814;8.650;2023-01-26T07:41:30;20.40;;;13.77;;
4422;SDS011;2224;49.814;8.650;2023-01-26T07:43:56;22.77;;;14.33;;
4422;SDS011;2224;49.814;8.650;2023-01-26T07:46:21;20.47;;;14.60;;
4422;SDS011;2224;49.814;8.650;2023-01-26T07:48:47;18.23;;;12.93;;
4422;SDS011;2224;49.814;8.650;2023-01-26T07:51:13;21.43;;;13.67;;
4422;SDS011;2224;49.814;8.650;2023-01-26T07:53:38;18.10;;;11.90;;
4422;SDS011;2224;49.814;8.650;2023-01-26T07:56:05;16.70;;;11.97;;
4422;SDS011;2224;49.814;8.650;2023-01-26T07:58:31;17.02;;;12.02;;
4422;SDS011;2224;49.814;8.650;2023-01-26T08:01:10;18.40;;;12.97;;
4422;SDS011;2224;49.814;8.650;2023-01-26T08:03:36;24.15;;;14.05;;
4422;SDS011;2224;49.814;8.650;2023-01-26T08:06:02;19.80;;;14.70;;
4422;SDS011;2224;49.814;8.650;2023-01-26T08:08:28;18.53;;;12.60;;
4422;SDS011;2224;49.814;8.650;2023-01-26T08:10:57;15.40;;;12.33;;
4422;SDS011;2224;49.814;8.650;2023-01-26T08:13:24;19.77;;;13.25;;
4422;SDS011;2224;49.814;8.650;2023-01-26T08:15:49;18.47;;;12.67;;
4422;SDS011;2224;49.814;8.650;2023-01-26T08:18:15;18.73;;;12.50;;
4422;SDS011;2224;49.814;8.650;2023-01-26T08:20:40;16.43;;;12.90;;
4422;SDS011;2224;49.814;8.650;2023-01-26T08:23:06;16.10;;;10.80;;
4422;SDS011;2224;49.814;8.650;2023-01-26T08:25:31;15.00;;;10.23;;
4422;SDS011;2224;49.814;8.650;2023-01-26T08:27:58;13.55;;;10.35;;
4422;SDS011;2224;49.814;8.650;2023-01-26T08:30:23;16.30;;;10.93;;
4422;SDS011;2224;49.814;8.650;2023-01-26T08:32:48;15.77;;;10.03;;
4422;SDS011;2224;49.814;8.650;2023-01-26T08:35:14;12.80;;;10.20;;
4422;SDS011;2224;49.814;8.650;2023-01-26T08:37:39;13.00;;;10.67;;
4422;SDS011;2224;49.814;8.650;2023-01-26T08:40:04;15.53;;;11.40;;
4422;SDS011;2224;49.814;8.650;2023-01-26T08:42:30;15.57;;;11.40;;
4422;SDS011;2224;49.814;8.650;2023-01-26T08:44:56;19.30;;;13.07;;
4422;SDS011;2224;49.814;8.650;2023-01-26T08:47:21;17.53;;;13.00;;
4422;SDS011;2224;49.814;8.650;2023-01-26T08:49:46;17.23;;;12.20;;
4422;SDS011;2224;49.814;8.650;2023-01-26T08:52:12;17.07;;;12.60;;
4422;SDS011;2224;49.814;8.650;2023-01-26T08:54:37;19.83;;;13.70;;
4422;SDS011;2224;49.814;8.650;2023-01-26T08:57:02;19.63;;;13.10;;
4422;SDS011;2224;49.814;8.650;2023-01-26T08:59:27;20.30;;;14.30;;
4422;SDS011;2224;49.814;8.650;2023-01-26T09:01:53;18.80;;;14.13;;
4422;SDS011;2224;49.814;8.650;2023-01-26T09:04:19;18.45;;;13.35;;
4422;SDS011;2224;49.814;8.650;2023-01-26T09:06:44;17.80;;;13.10;;
4422;SDS011;2224;49.814;8.650;2023-01-26T09:09:10;18.70;;;12.90;;
4422;SDS011;2224;49.814;8.650;2023-01-26T09:11:37;19.95;;;13.95;;
4422;SDS011;2224;49.814;8.650;2023-01-26T09:14:03;19.85;;;14.80;;
4422;SDS011;2224;49.814;8.650;2023-01-26T09:16:28;18.23;;;13.27;;
4422;SDS011;2224;49.814;8.650;2023-01-26T09:18:54;20.60;;;14.30;;
4422;SDS011;2224;49.814;8.650;2023-01-26T09:21:19;19.60;;;14.40;;
4422;SDS011;2224;49.814;8.650;2023-01-26T09:23:45;16.43;;;13.40;;
4422;SDS011;2224;49.814;8.650;2023-01-26T09:26:10;13.70;;;11.40;;
4422;SDS011;2224;49.814;8.650;2023-01-26T09:28:36;15.00;;;12.63;;
4422;SDS011;2224;49.814;8.650;2023-01-26T09:31:02;14.67;;;12.10;;
4422;SDS011;2224;49.814;8.650;2023-01-26T09:33:32;13.85;;;11.88;;
4422;SDS011;2224;49.814;8.650;2023-01-26T09:36:04;16.13;;;12.97;;
4422;SDS011;2224;49.814;8.650;2023-01-26T09:38:30;13.43;;;10.80;;
4422;SDS011;2224;49.814;8.650;2023-01-26T09:41:01;15.07;;;12.27;;
4422;SDS011;2224;49.814;8.650;2023-01-26T09:48:52;15.05;;;11.65;;
4422;SDS011;2224;49.814;8.650;2023-01-26T09:54:00;13.23;;;11.25;;
4422;SDS011;2224;49.814;8.650;2023-01-26T09:56:29;14.20;;;11.65;;
4422;SDS011;2224;49.814;8.650;2023-01-26T10:04:41;13.32;;;10.55;;
4422;SDS011;2224;49.814;8.650;2023-01-26T10:07:11;14.45;;;11.80;;
4422;SDS011;2224;49.814;8.650;2023-01-26T10:09:37;14.38;;;12.13;;
4422;SDS011;2224;49.814;8.650;2023-01-26T10:12:10;16.25;;;11.50;;
4422;SDS011;2224;49.814;8.650;2023-01-26T10:14:44;12.48;;;10.65;;
4422;SDS011;2224;49.814;8.650;2023-01-26T10:17:14;14.52;;;11.30;;
4422;SDS011;2224;49.814;8.650;2023-01-26T10:19:44;13.48;;;10.63;;
4422;SDS011;2224;49.814;8.650;2023-01-26T10:22:15;13.80;;;11.82;;
4422;SDS011;2224;49.814;8.650;2023-01-26T10:24:46;13.07;;;10.57;;
4422;SDS011;2224;49.814;8.650;2023-01-26T10:27:12;14.02;;;11.70;;
4422;SDS011;2224;49.814;8.650;2023-01-26T10:29:40;12.05;;;10.80;;
4422;SDS011;2224;49.814;8.650;2023-01-26T10:32:08;14.63;;;11.40;;
4422;SDS011;2224;49.814;8.650;2023-01-26T10:34:37;12.55;;;11.30;;
4422;SDS011;2224;49.814;8.650;2023-01-26T10:37:17;16.38;;;13.50;;
4422;SDS011;2224;49.814;8.650;2023-01-26T10:39:57;14.55;;;11.52;;
4422;SDS011;2224;49.814;8.650;2023-01-26T10:42:28;12.90;;;11.35;;
4422;SDS011;2224;49.814;8.650;2023-01-26T10:44:55;11.98;;;10.10;;
4422;SDS011;2224;49.814;8.650;2023-01-26T10:47:21;12.47;;;11.17;;
4422;SDS011;2224;49.814;8.650;2023-01-26T10:49:46;11.87;;;9.57;;
4422;SDS011;2224;49.814;8.650;2023-01-26T10:54:50;14.38;;;11.82;;
4422;SDS011;2224;49.814;8.650;2023-01-26T10:57:36;13.60;;;10.52;;
4422;SDS011;2224;49.814;8.650;2023-01-26T11:00:04;16.27;;;12.25;;
4422;SDS011;2224;49.814;8.650;2023-01-26T11:02:32;14.30;;;10.85;;
4422;SDS011;2224;49.814;8.650;2023-01-26T11:05:03;15.18;;;11.07;;
4422;SDS011;2224;49.814;8.650;2023-01-26T11:10:23;13.43;;;10.85;;
4422;SDS011;2224;49.814;8.650;2023-01-26T11:12:50;15.15;;;12.50;;
4422;SDS011;2224;49.814;8.650;2023-01-26T11:15:22;13.40;;;11.30;;
4422;SDS011;2224;49.814;8.650;2023-01-26T11:17:55;14.98;;;11.27;;
4422;SDS011;2224;49.814;8.650;2023-01-26T11:20:36;14.52;;;11.70;;
4422;SDS011;2224;49.814;8.650;2023-01-26T11:31:51;13.23;;;10.65;;
4422;SDS011;2224;49.814;8.650;2023-01-26T11:34:28;11.65;;;10.00;;
4422;SDS011;2224;49.814;8.650;2023-01-26T11:37:16;12.57;;;9.55;;
4422;SDS011;2224;49.814;8.650;2023-01-26T11:39:58;13.05;;;10.70;;
4422;SDS011;2224;49.814;8.650;2023-01-26T11:42:41;14.55;;;11.35;;
4422;SDS011;2224;49.814;8.650;2023-01-26T11:45:16;15.02;;;11.60;;
4422;SDS011;2224;49.814;8.650;2023-01-26T11:50:29;13.88;;;11.40;;
4422;SDS011;2224;49.814;8.650;2023-01-26T11:55:46;14.20;;;10.53;;
4422;SDS011;2224;49.814;8.650;2023-01-26T11:58:19;13.57;;;10.65;;
4422;SDS011;2224;49.814;8.650;2023-01-26T12:00:56;13.20;;;10.48;;
4422;SDS011;2224;49.814;8.650;2023-01-26T12:03:24;13.00;;;11.55;;
4422;SDS011;2224;49.814;8.650;2023-01-26T12:05:56;16.65;;;12.50;;
4422;SDS011;2224;49.814;8.650;2023-01-26T12:08:39;14.02;;;10.90;;
4422;SDS011;2224;49.814;8.650;2023-01-26T12:11:21;11.52;;;10.25;;
4422;SDS011;2224;49.814;8.650;2023-01-26T12:16:41;13.48;;;10.43;;
4422;SDS011;2224;49.814;8.650;2023-01-26T12:19:14;11.95;;;10.35;;
4422;SDS011;2224;49.814;8.650;2023-01-26T12:22:05;14.23;;;11.77;;
4422;SDS011;2224;49.814;8.650;2023-01-26T12:24:39;17.20;;;13.40;;
4422;SDS011;2224;49.814;8.650;2023-01-26T12:27:11;16.13;;;12.52;;
4422;SDS011;2224;49.814;8.650;2023-01-26T12:29:46;12.60;;;10.48;;
4422;SDS011;2224;49.814;8.650;2023-01-26T12:32:15;13.15;;;11.85;;
4422;SDS011;2224;49.814;8.650;2023-01-26T12:34:41;16.33;;;10.73;;
4422;SDS011;2224;49.814;8.650;2023-01-26T12:39:55;15.48;;;11.98;;
4422;SDS011;2224;49.814;8.650;2023-01-26T12:42:50;14.75;;;11.95;;
4422;SDS011;2224;49.814;8.650;2023-01-26T12:45:24;16.05;;;12.80;;
4422;SDS011;2224;49.814;8.650;2023-01-26T12:47:58;15.50;;;12.30;;
4422;SDS011;2224;49.814;8.650;2023-01-26T12:50:34;15.27;;;13.63;;
4422;SDS011;2224;49.814;8.650;2023-01-26T12:53:08;14.93;;;12.50;;
4422;SDS011;2224;49.814;8.650;2023-01-26T12:55:51;14.55;;;13.02;;
4422;SDS011;2224;49.814;8.650;2023-01-26T13:00:58;15.15;;;12.52;;
4422;SDS011;2224;49.814;8.650;2023-01-26T13:03:33;18.25;;;14.18;;
4422;SDS011;2224;49.814;8.650;2023-01-26T13:10:59;20.80;;;14.50;;
4422;SDS011;2224;49.814;8.650;2023-01-26T13:16:13;20.02;;;14.50;;
4422;SDS011;2224;49.814;8.650;2023-01-26T13:21:24;15.40;;;13.05;;
4422;SDS011;2224;49.814;8.650;2023-01-26T13:23:51;18.58;;;14.30;;
4422;SDS011;2224;49.814;8.650;2023-01-26T13:26:20;18.80;;;13.07;;
4422;SDS011;2224;49.814;8.650;2023-01-26T13:28:49;16.55;;;13.02;;
4422;SDS011;2224;49.814;8.650;2023-01-26T13:31:28;17.37;;;12.27;;
4422;SDS011;2224;49.814;8.650;2023-01-26T13:33:55;14.20;;;11.98;;
4422;SDS011;2224;49.814;8.650;2023-01-26T13:36:23;13.55;;;11.15;;
4422;SDS011;2224;49.814;8.650;2023-01-26T13:38:57;14.00;;;10.60;;
4422;SDS011;2224;49.814;8.650;2023-01-26T13:41:25;15.43;;;12.20;;
4422;SDS011;2224;49.814;8.650;2023-01-26T13:43:58;14.77;;;12.20;;
4422;SDS011;2224;49.814;8.650;2023-01-26T13:46:38;18.35;;;11.82;;
4422;SDS011;2224;49.814;8.650;2023-01-26T13:49:26;13.13;;;11.25;;
4422;SDS011;2224;49.814;8.650;2023-01-26T13:52:18;12.27;;;10.95;;
4422;SDS011;2224;49.814;8.650;2023-01-26T13:54:45;13.07;;;10.50;;
4422;SDS011;2224;49.814;8.650;2023-01-26T13:57:11;15.10;;;12.40;;
4422;SDS011;2224;49.814;8.650;2023-01-26T13:59:47;15.38;;;12.82;;
4422;SDS011;2224;49.814;8.650;2023-01-26T14:04:51;15.93;;;13.20;;
4422;SDS011;2224;49.814;8.650;2023-01-26T14:07:19;15.20;;;13.02;;
4422;SDS011;2224;49.814;8.650;2023-01-26T14:09:49;17.02;;;13.30;;
4422;SDS011;2224;49.814;8.650;2023-01-26T14:12:32;15.68;;;12.60;;
4422;SDS011;2224;49.814;8.650;2023-01-26T14:15:00;17.40;;;13.05;;
4422;SDS011;2224;49.814;8.650;2023-01-26T14:17:35;18.17;;;14.00;;
4422;SDS011;2224;49.814;8.650;2023-01-26T14:20:17;19.58;;;14.13;;
4422;SDS011;2224;49.814;8.650;2023-01-26T14:22:44;15.70;;;11.90;;
4422;SDS011;2224;49.814;8.650;2023-01-26T14:25:17;19.92;;;14.55;;
4422;SDS011;2224;49.814;8.650;2023-01-26T14:27:43;15.43;;;12.80;;
4422;SDS011;2224;49.814;8.650;2023-01-26T14:30:22;17.00;;;12.23;;
4422;SDS011;2224;49.814;8.650;2023-01-26T14:32:57;15.60;;;10.88;;
4422;SDS011;2224;49.814;8.650;2023-01-26T14:35:29;15.65;;;10.25;;
4422;SDS011;2224;49.814;8.650;2023-01-26T14:38:05;17.30;;;10.73;;
4422;SDS011;2224;49.814;8.650;2023-01-26T14:40:35;15.93;;;10.23;;
4422;SDS011;2224;49.814;8.650;2023-01-26T14:43:08;13.52;;;10.52;;
4422;SDS011;2224;49.814;8.650;2023-01-26T14:45:33;13.97;;;10.30;;
4422;SDS011;2224;49.814;8.650;2023-01-26T14:48:00;15.33;;;10.93;;
4422;SDS011;2224;49.814;8.650;2023-01-26T14:50:29;14.52;;;10.35;;
4422;SDS011;2224;49.814;8.650;2023-01-26T14:52:56;13.95;;;10.95;;
4422;SDS011;2224;49.814;8.650;2023-01-26T14:55:31;15.60;;;10.80;;
4422;SDS011;2224;49.814;8.650;2023-01-26T14:57:59;13.65;;;10.77;;
4422;SDS011;2224;49.814;8.650;2023-01-26T15:00:30;12.18;;;9.55;;
4422;SDS011;2224;49.814;8.650;2023-01-26T15:02:58;17.08;;;11.27;;
4422;SDS011;2224;49.814;8.650;2023-01-26T15:05:31;16.33;;;11.07;;
4422;SDS011;2224;49.814;8.650;2023-01-26T15:07:59;22.25;;;15.10;;
4422;SDS011;2224;49.814;8.650;2023-01-26T15:15:43;17.65;;;11.90;;
4422;SDS011;2224;49.814;8.650;2023-01-26T15:18:17;16.73;;;11.50;;
4422;SDS011;2224;49.814;8.650;2023-01-26T15:20:48;17.55;;;11.40;;
4422;SDS011;2224;49.814;8.650;2023-01-26T15:26:03;15.98;;;12.02;;
4422;SDS011;2224;49.814;8.650;2023-01-26T15:28:30;16.42;;;11.10;;
4422;SDS011;2224;49.814;8.650;2023-01-26T15:30:55;15.63;;;11.53;;
4422;SDS011;2224;49.814;8.650;2023-01-26T15:33:37;16.63;;;10.90;;
4422;SDS011;2224;49.814;8.650;2023-01-26T15:36:04;16.50;;;11.25;;
4422;SDS011;2224;49.814;8.650;2023-01-26T15:38:30;15.93;;;11.27;;
4422;SDS011;2224;49.814;8.650;2023-01-26T15:40:55;16.37;;;11.43;;
4422;SDS011;2224;49.814;8.650;2023-01-26T15:43:20;16.43;;;11.27;;
4422;SDS011;2224;49.814;8.650;2023-01-26T15:45:53;15.93;;;11.20;;
4422;SDS011;2224;49.814;8.650;2023-01-26T15:48:20;15.65;;;10.77;;
4422;SDS011;2224;49.814;8.650;2023-01-26T15:50:46;15.02;;;10.18;;
4422;SDS011;2224;49.814;8.650;2023-01-26T15:53:16;14.70;;;10.98;;
4422;SDS011;2224;49.814;8.650;2023-01-26T15:55:46;16.75;;;12.40;;
4422;SDS011;2224;49.814;8.650;2023-01-26T15:58:20;17.17;;;10.55;;
4422;SDS011;2224;49.814;8.650;2023-01-26T16:00:47;16.63;;;10.80;;
4422;SDS011;2224;49.814;8.650;2023-01-26T16:03:16;17.83;;;11.53;;
4422;SDS011;2224;49.814;8.650;2023-01-26T16:05:42;15.85;;;11.13;;
4422;SDS011;2224;49.814;8.650;2023-01-26T16:08:09;15.68;;;10.63;;
4422;SDS011;2224;49.814;8.650;2023-01-26T16:10:36;19.77;;;12.53;;
4422;SDS011;2224;49.814;8.650;2023-01-26T16:13:04;20.65;;;12.05;;